Time;durP1;ratioP1;P1;durP2;ratioP2;P2;SDS_P1;SDS_P2;PMS_P1;PMS_P2;Temp;Humidity;BMP_temperature;BMP_pressure;BME280_temperature;BME280_humidity;BME280_pressure;Samples;Min_cycle;Max_cycle;Signal;HPM_P1;HPM_P2
2022/06/12 00:00:09;;;;;;;18.05;3.45;;;;;;;13.10;88.88;102357.03;5055055;28;20033;-69
2022/06/12 00:02:34;;;;;;;22.25;3.95;;;;;;;13.09;89.53;102357.16;5055347;28;20456;-69
2022/06/12 00:05:00;;;;;;;22.35;3.72;;;;;;;13.09;90.06;102352.66;5055469;28;20033;-69
2022/06/12 00:07:26;;;;;;;16.88;3.40;;;;;;;13.07;91.18;102351.09;5054372;28;20543;-69
2022/06/12 00:09:51;;;;;;;15.20;2.83;;;;;;;13.05;91.73;102352.06;5054757;28;20025;-69
2022/06/12 00:12:16;;;;;;;25.50;3.55;;;;;;;13.06;92.03;102350.22;5055116;28;20401;-69
2022/06/12 00:14:42;;;;;;;26.38;3.78;;;;;;;13.08;92.65;102348.31;5055434;28;20033;-69
2022/06/12 00:17:07;;;;;;;17.20;3.08;;;;;;;13.07;92.80;102345.75;5054457;28;20033;-69
2022/06/12 00:19:33;;;;;;;19.60;3.53;;;;;;;13.05;93.22;102346.72;5055123;28;20033;-69
2022/06/12 00:21:58;;;;;;;21.60;3.65;;;;;;;13.03;93.79;102346.00;5055005;28;20029;-69
2022/06/12 00:24:25;;;;;;;23.80;3.53;;;;;;;13.00;93.94;102340.00;5054985;28;20028;-69
2022/06/12 00:26:54;;;;;;;20.92;3.60;;;;;;;12.98;94.10;102339.28;5054891;28;20044;-69
2022/06/12 00:29:29;;;;;;;22.90;4.82;;;;;;;12.95;94.45;102339.53;5055081;28;20108;-69
2022/06/12 00:32:16;;;;;;;21.20;3.78;;;;;;;12.92;95.17;102343.28;5054775;28;20528;-69
2022/06/12 00:34:48;;;;;;;20.73;3.72;;;;;;;12.91;96.08;102348.75;5054637;28;20078;-69
2022/06/12 00:37:17;;;;;;;18.48;3.65;;;;;;;12.84;96.40;102343.88;5055330;28;20036;-70
2022/06/12 00:39:44;;;;;;;20.45;3.22;;;;;;;12.82;96.55;102339.59;5054939;28;20036;-68
2022/06/12 00:42:27;;;;;;;21.42;3.45;;;;;;;12.83;96.92;102341.31;5054201;28;20036;-69
2022/06/12 00:44:54;;;;;;;21.00;3.47;;;;;;;12.83;97.73;102334.16;5055025;28;20037;-69
2022/06/12 00:47:20;;;;;;;20.77;3.88;;;;;;;12.83;97.64;102335.97;5054485;28;20037;-68
2022/06/12 00:50:00;;;;;;;20.63;4.07;;;;;;;12.81;97.84;102333.44;5054736;28;20054;-69
2022/06/12 00:52:37;;;;;;;22.58;3.97;;;;;;;12.81;98.21;102340.59;5054752;28;20029;-70
2022/06/12 00:55:12;;;;;;;21.13;3.83;;;;;;;12.77;98.42;102333.78;5054840;28;20449;-70
2022/06/12 00:57:38;;;;;;;18.35;4.18;;;;;;;12.78;98.96;102347.03;5053735;28;20039;-75
2022/06/12 01:00:09;;;;;;;23.65;4.65;;;;;;;12.81;99.66;102341.44;5051611;28;20105;-73
2022/06/12 01:02:34;;;;;;;;;;;;;;;12.85;99.87;102342.03;5052281;28;20109;-74
2022/06/12 01:07:53;;;;;;;22.02;3.80;;;;;;;12.88;99.72;102341.81;5051749;28;20102;-72
2022/06/12 01:10:21;;;;;;;24.58;4.95;;;;;;;12.86;99.70;102344.59;5051594;28;20104;-73
2022/06/12 01:12:50;;;;;;;14.43;3.60;;;;;;;12.84;99.45;102351.88;5051367;28;20040;-73
2022/06/12 01:15:34;;;;;;;22.05;4.57;;;;;;;12.84;99.79;102345.69;5051483;28;20037;-74
2022/06/12 01:17:59;;;;;;;18.75;4.03;;;;;;;12.82;100.00;102342.28;5051643;28;20346;-75
2022/06/12 01:20:31;;;;;;;21.77;3.70;;;;;;;12.80;100.00;102337.06;5051461;28;20029;-75
2022/06/12 01:23:28;;;;;;;28.17;3.97;;;;;;;12.80;100.00;102322.88;5051669;28;20040;-75
2022/06/12 01:26:30;;;;;;;29.55;4.63;;;;;;;12.83;100.00;102338.66;5051610;28;20036;-75
2022/06/12 01:29:11;;;;;;;19.92;3.90;;;;;;;12.92;100.00;102337.94;5051546;28;20139;-74
2022/06/12 01:32:08;;;;;;;27.52;4.90;;;;;;;12.97;100.00;102330.44;5051365;28;20066;-74
2022/06/12 01:34:55;;;;;;;25.80;4.63;;;;;;;13.04;100.00;102333.47;5050717;28;20031;-74
2022/06/12 01:37:49;;;;;;;33.13;4.68;;;;;;;13.09;99.97;102333.94;5050949;28;20033;-75
2022/06/12 01:40:35;;;;;;;17.98;2.90;;;;;;;13.11;99.47;102340.03;5051046;28;20100;-74
2022/06/12 01:43:35;;;;;;;22.55;4.35;;;;;;;13.10;99.18;102330.31;5050659;28;20166;-75
2022/06/12 01:46:15;;;;;;;24.45;5.07;;;;;;;13.10;99.43;102337.50;5048003;28;20044;-75
2022/06/12 01:49:17;;;;;;;23.17;4.13;;;;;;;13.09;99.51;102331.28;5051275;28;20028;-74
2022/06/12 01:51:57;;;;;;;24.63;4.57;;;;;;;13.09;99.89;102341.13;5050990;28;20112;-74
2022/06/12 01:54:32;;;;;;;24.95;4.72;;;;;;;13.11;100.00;102341.88;5050561;28;20064;-74
2022/06/12 01:57:06;;;;;;;23.25;4.00;;;;;;;13.10;100.00;102345.50;5050994;28;20041;-74
2022/06/12 01:59:45;;;;;;;30.70;5.05;;;;;;;13.13;100.00;102346.13;5051082;28;20029;-74
2022/06/12 02:02:25;;;;;;;38.53;5.05;;;;;;;13.11;100.00;102342.72;5050446;28;20029;-74
2022/06/12 02:05:15;;;;;;;23.92;4.70;;;;;;;13.11;100.00;102341.88;5050605;28;20025;-74
2022/06/12 02:07:57;;;;;;;19.52;3.40;;;;;;;13.09;100.00;102338.47;5051157;28;20456;-75
2022/06/12 02:10:36;;;;;;;23.20;4.85;;;;;;;13.07;100.00;102330.56;5050898;28;20461;-74
2022/06/12 02:13:13;;;;;;;20.90;4.70;;;;;;;13.03;100.00;102326.41;5050647;28;20047;-75
2022/06/12 02:16:03;;;;;;;29.63;4.85;;;;;;;13.02;100.00;102330.91;5050865;28;20033;-74
2022/06/12 02:18:46;;;;;;;30.70;4.10;;;;;;;13.04;100.00;102334.31;5050758;28;20139;-74
2022/06/12 02:21:23;;;;;;;28.50;4.25;;;;;;;13.07;100.00;102335.91;5050486;28;20033;-75
2022/06/12 02:24:07;;;;;;;18.95;3.88;;;;;;;13.05;100.00;102329.84;5051048;28;20368;-75
2022/06/12 02:26:38;;;;;;;29.25;4.45;;;;;;;12.99;100.00;102338.34;5050581;28;20150;-73
2022/06/12 02:29:15;;;;;;;22.50;4.20;;;;;;;12.93;100.00;102330.75;5050884;28;20102;-74
2022/06/12 02:31:45;;;;;;;23.58;4.22;;;;;;;12.85;100.00;102337.56;5052378;28;20155;-74
2022/06/12 02:34:16;;;;;;;28.52;4.82;;;;;;;12.78;100.00;102339.00;5054252;28;20025;-75
2022/06/12 02:36:46;;;;;;;28.75;4.03;;;;;;;12.74;100.00;102339.34;5055105;28;20029;-74
2022/06/12 02:39:22;;;;;;;23.63;3.88;;;;;;;12.73;100.00;102340.31;5054251;28;20037;-74
2022/06/12 02:41:51;;;;;;;23.85;4.72;;;;;;;12.71;100.00;102343.09;5054318;28;20037;-74
2022/06/12 02:44:33;;;;;;;22.52;3.55;;;;;;;12.77;100.00;102331.09;5054063;28;20045;-74
2022/06/12 02:47:12;;;;;;;25.77;4.07;;;;;;;12.82;100.00;102327.13;5054463;28;20488;-74
2022/06/12 02:49:39;;;;;;;27.63;4.35;;;;;;;12.87;100.00;102330.28;5054916;28;20025;-74
2022/06/12 02:52:20;;;;;;;24.80;4.55;;;;;;;12.91;100.00;102324.69;5053953;28;20092;-74
2022/06/12 02:54:52;;;;;;;22.05;3.70;;;;;;;12.91;100.00;102325.53;5054927;28;20127;-74
2022/06/12 02:57:29;;;;;;;22.65;4.18;;;;;;;12.91;100.00;102322.03;5054217;28;20032;-74
2022/06/12 03:00:10;;;;;;;25.08;4.50;;;;;;;12.90;100.00;102326.53;5054389;28;20081;-73
2022/06/12 03:02:57;;;;;;;20.65;3.80;;;;;;;12.86;100.00;102320.56;5054051;28;20029;-74
2022/06/12 03:05:28;;;;;;;29.92;4.32;;;;;;;12.82;100.00;102323.59;5053850;28;20042;-74
2022/06/12 03:08:00;;;;;;;34.60;5.25;;;;;;;12.77;100.00;102328.44;5054053;28;20108;-74
2022/06/12 03:10:31;;;;;;;21.85;4.28;;;;;;;12.73;100.00;102329.63;5053920;28;20307;-74
2022/06/12 03:12:56;;;;;;;24.90;4.28;;;;;;;12.76;100.00;102324.91;5053489;28;20036;-74
2022/06/12 03:15:43;;;;;;;22.33;3.72;;;;;;;12.72;100.00;102325.25;5053509;28;20433;-74
2022/06/12 03:18:13;;;;;;;19.52;3.90;;;;;;;12.66;100.00;102319.41;5053746;28;20052;-74
2022/06/12 03:20:55;;;;;;;21.55;5.32;;;;;;;12.64;100.00;102324.00;5052967;28;20097;-74
2022/06/12 03:23:33;;;;;;;21.08;3.83;;;;;;;12.63;100.00;102334.81;5053416;28;20128;-74
2022/06/12 03:26:03;;;;;;;21.40;3.80;;;;;;;12.62;100.00;102336.63;5053407;28;20032;-74
2022/06/12 03:29:04;;;;;;;22.98;4.35;;;;;;;12.54;100.00;102336.38;5053472;28;20112;-74
2022/06/12 03:31:40;;;;;;;25.00;4.45;;;;;;;12.51;100.00;102336.63;5052925;28;20057;-74
2022/06/12 03:34:20;;;;;;;19.75;4.03;;;;;;;12.48;100.00;102343.03;5053413;28;20158;-74
2022/06/12 03:37:11;;;;;;;17.98;4.10;;;;;;;12.46;100.00;102344.09;5053160;28;20048;-74
2022/06/12 03:39:50;;;;;;;18.48;3.85;;;;;;;12.49;100.00;102351.88;5052948;28;20121;-73
2022/06/12 03:42:27;;;;;;;17.15;3.47;;;;;;;12.51;100.00;102347.28;5052359;28;20029;-73
2022/06/12 03:45:13;;;;;;;17.83;3.90;;;;;;;12.52;100.00;102339.16;5052607;28;20466;-73
2022/06/12 03:48:00;;;;;;;23.45;3.88;;;;;;;12.52;100.00;102331.16;5053190;28;20052;-73
2022/06/12 03:50:33;;;;;;;17.92;3.45;;;;;;;12.58;100.00;102334.31;5052603;28;20104;-73
2022/06/12 03:53:15;;;;;;;20.80;3.65;;;;;;;12.65;100.00;102336.41;5052760;28;20055;-72
2022/06/12 03:58:51;;;;;;;19.17;3.78;;;;;;;12.73;99.26;102334.97;5052685;28;20071;-74
2022/06/12 04:01:17;;;;;;;20.48;3.60;;;;;;;12.75;99.00;102335.69;5052643;28;20043;-75
2022/06/12 04:03:45;;;;;;;20.55;3.30;;;;;;;12.76;98.63;102337.41;5052438;28;20142;-75
2022/06/12 04:06:17;;;;;;;22.58;4.07;;;;;;;12.78;98.57;102341.69;5052749;28;20052;-74
2022/06/12 04:08:49;;;;;;;19.40;3.60;;;;;;;12.83;98.17;102349.34;5052072;28;20025;-74
2022/06/12 04:11:19;;;;;;;12.35;2.90;;;;;;;12.84;97.85;102346.53;5052724;28;20029;-74
2022/06/12 04:13:45;;;;;;;15.75;3.13;;;;;;;12.86;97.61;102346.44;5052472;28;20039;-74
2022/06/12 04:16:19;;;;;;;22.27;3.55;;;;;;;12.88;97.64;102348.03;5052515;28;20033;-74
2022/06/12 04:18:44;;;;;;;19.33;3.67;;;;;;;12.89;97.69;102348.84;5052458;28;20040;-75
2022/06/12 04:21:27;;;;;;;16.20;3.55;;;;;;;12.90;97.37;102355.91;5052307;28;20361;-74
2022/06/12 04:23:59;;;;;;;19.67;3.75;;;;;;;12.93;97.29;102355.69;5052076;28;20037;-74
2022/06/12 04:26:39;;;;;;;21.52;3.30;;;;;;;12.96;97.15;102351.94;5052194;28;20021;-75
2022/06/12 04:29:20;;;;;;;16.08;3.05;;;;;;;13.00;96.93;102348.91;5052339;28;20025;-73
2022/06/12 04:31:47;;;;;;;19.02;3.25;;;;;;;13.03;96.53;102358.47;5052073;28;20029;-74
2022/06/12 04:34:32;;;;;;;13.80;2.80;;;;;;;13.07;96.17;102359.13;5051844;28;20032;-74
2022/06/12 04:37:14;;;;;;;23.27;3.78;;;;;;;13.10;95.93;102361.53;5052303;28;20049;-74
2022/06/12 04:39:41;;;;;;;14.35;3.22;;;;;;;13.18;95.25;102357.31;5052017;28;20036;-74
2022/06/12 04:42:08;;;;;;;18.90;4.13;;;;;;;13.22;94.79;102356.06;5051374;28;20040;-74
2022/06/12 04:44:33;;;;;;;15.93;3.08;;;;;;;13.25;94.25;102364.84;5051783;28;20033;-74
2022/06/12 04:47:00;;;;;;;11.07;2.75;;;;;;;13.27;94.15;102368.25;5051597;28;20433;-74
2022/06/12 04:49:30;;;;;;;13.55;3.58;;;;;;;13.31;93.80;102369.72;5051534;28;20120;-72
2022/06/12 04:51:57;;;;;;;11.23;3.85;;;;;;;13.32;93.56;102368.75;5051921;28;20421;-72
2022/06/12 04:54:25;;;;;;;14.88;3.13;;;;;;;13.34;92.48;102367.66;5050687;28;20053;-72
2022/06/12 04:56:50;;;;;;;17.05;3.38;;;;;;;13.38;92.14;102365.63;5050443;28;20072;-74
2022/06/12 04:59:18;;;;;;;16.63;3.17;;;;;;;13.40;90.92;102369.88;5051314;28;20033;-72
2022/06/12 05:01:45;;;;;;;10.77;2.72;;;;;;;13.45;90.04;102368.66;5051187;28;20036;-72
2022/06/12 05:04:11;;;;;;;17.98;3.05;;;;;;;13.49;89.01;102370.97;5051207;28;20040;-74
2022/06/12 05:06:38;;;;;;;13.20;3.03;;;;;;;13.53;88.29;102372.44;5050940;28;20083;-74
2022/06/12 05:09:05;;;;;;;8.65;2.38;;;;;;;13.55;88.00;102369.63;5051187;28;20032;-74
2022/06/12 05:11:31;;;;;;;9.82;2.75;;;;;;;13.60;88.12;102377.28;5051130;28;20109;-75
2022/06/12 05:13:56;;;;;;;9.20;2.83;;;;;;;13.62;87.72;102376.19;5051017;28;20086;-73
2022/06/12 05:16:28;;;;;;;13.68;2.70;;;;;;;13.67;87.67;102373.16;5051157;28;20410;-74
2022/06/12 05:18:53;;;;;;;;;;;;;;;13.71;87.10;102379.97;5051422;28;20040;-74
2022/06/12 05:21:18;;;;;;;12.02;2.50;;;;;;;13.74;85.96;102375.22;5051144;28;20229;-74
2022/06/12 05:23:44;;;;;;;14.07;2.60;;;;;;;13.80;84.92;102376.56;5050888;28;20036;-74
2022/06/12 05:26:14;;;;;;;7.80;2.35;;;;;;;13.86;84.94;102372.56;5051042;28;20091;-72
2022/06/12 05:28:39;;;;;;;14.27;3.10;;;;;;;13.90;85.03;102374.00;5050930;28;20037;-74
2022/06/12 05:31:05;;;;;;;10.98;2.50;;;;;;;13.96;83.70;102364.63;5050459;28;20036;-73
2022/06/12 05:33:30;;;;;;;15.45;2.83;;;;;;;14.04;83.29;102375.56;5050708;28;20067;-74
2022/06/12 05:35:55;;;;;;;11.68;2.72;;;;;;;14.11;82.54;102382.13;5049558;28;20128;-74
2022/06/12 05:38:21;;;;;;;17.38;2.85;;;;;;;14.18;82.41;102379.78;5050791;28;20025;-73
2022/06/12 05:40:46;;;;;;;13.35;2.60;;;;;;;14.28;81.45;102383.41;5050594;28;20091;-74
2022/06/12 05:43:11;;;;;;;14.23;2.75;;;;;;;14.37;81.31;102381.81;5050748;28;20048;-73
2022/06/12 05:45:37;;;;;;;8.55;2.45;;;;;;;14.48;81.14;102391.63;5050484;28;20029;-74
2022/06/12 05:48:10;;;;;;;13.15;3.00;;;;;;;14.58;80.42;102388.03;5050503;28;20528;-74
2022/06/12 05:50:45;;;;;;;16.35;3.42;;;;;;;14.73;79.95;102395.81;5050475;28;20449;-74
2022/06/12 05:53:10;;;;;;;12.80;2.30;;;;;;;14.89;78.99;102396.22;5050123;28;20052;-74
2022/06/12 05:55:36;;;;;;;10.30;2.55;;;;;;;15.04;77.90;102394.09;5050288;28;20025;-74
2022/06/12 05:58:01;;;;;;;12.95;2.53;;;;;;;15.20;78.42;102392.75;5050189;28;20064;-74
2022/06/12 06:00:30;;;;;;;14.40;2.72;;;;;;;15.34;78.00;102392.44;5050266;28;20465;-74
2022/06/12 06:02:55;;;;;;;17.83;3.10;;;;;;;15.50;78.51;102400.84;5050317;28;20048;-74
2022/06/12 06:05:21;;;;;;;7.95;2.42;;;;;;;15.55;74.97;102399.59;5049575;28;20130;-74
2022/06/12 06:07:46;;;;;;;10.35;2.55;;;;;;;15.52;74.97;102398.91;5048425;28;20058;-73
2022/06/12 06:10:18;;;;;;;9.25;2.00;;;;;;;15.47;75.03;102395.75;5050135;28;20057;-73
2022/06/12 06:12:43;;;;;;;11.43;2.40;;;;;;;15.53;75.04;102402.41;5050100;28;20037;-73
2022/06/12 06:15:10;;;;;;;12.20;2.78;;;;;;;15.62;74.16;102408.81;5048713;28;20392;-74
2022/06/12 06:17:36;;;;;;;12.43;2.28;;;;;;;15.67;74.31;102412.81;5048819;28;20141;-73
2022/06/12 06:20:02;;;;;;;9.57;2.55;;;;;;;15.75;73.80;102414.81;5049755;28;20033;-73
2022/06/12 06:22:27;;;;;;;12.13;3.05;;;;;;;15.86;73.35;102414.72;5050092;28;20124;-72
2022/06/12 06:24:53;;;;;;;8.55;2.35;;;;;;;15.95;72.13;102412.22;5050157;28;20105;-72
2022/06/12 06:27:18;;;;;;;9.40;2.13;;;;;;;15.99;72.62;102402.94;5049971;28;20037;-73
2022/06/12 06:29:44;;;;;;;9.35;2.47;;;;;;;16.15;72.10;102411.31;5049897;28;20497;-73
2022/06/12 06:32:11;;;;;;;12.07;2.65;;;;;;;16.31;71.29;102416.13;5049832;28;20094;-73
2022/06/12 06:34:38;;;;;;;16.63;3.30;;;;;;;16.40;70.65;102411.75;5049448;28;20512;-73
2022/06/12 06:37:05;;;;;;;11.60;2.90;;;;;;;16.51;71.44;102421.53;5050224;28;20037;-73
2022/06/12 06:39:30;;;;;;;10.88;2.78;;;;;;;16.56;69.28;102420.13;5049852;28;20033;-73
2022/06/12 06:41:56;;;;;;;8.90;2.58;;;;;;;16.59;68.93;102423.53;5049899;28;20335;-73
2022/06/12 06:47:06;;;;;;;18.13;3.15;;;;;;;16.73;68.80;102431.16;5050146;28;20091;-73
2022/06/12 06:49:32;;;;;;;11.30;2.40;;;;;;;16.82;68.38;102430.31;5049814;28;20037;-73
2022/06/12 06:51:57;;;;;;;14.65;2.47;;;;;;;16.94;68.39;102431.03;5049896;28;20033;-73
2022/06/12 06:54:23;;;;;;;14.52;2.70;;;;;;;17.01;67.85;102434.88;5049815;28;20056;-73
2022/06/12 06:56:50;;;;;;;14.32;2.88;;;;;;;17.06;67.17;102442.50;5049827;28;20052;-73
2022/06/12 06:59:16;;;;;;;11.70;3.28;;;;;;;17.20;67.99;102447.44;5049640;28;20044;-74
2022/06/12 07:01:42;;;;;;;14.23;2.60;;;;;;;17.38;67.60;102447.56;5049277;28;20029;-73
2022/06/12 07:04:07;;;;;;;12.55;2.60;;;;;;;17.47;66.05;102443.16;5048265;28;20028;-72
2022/06/12 07:06:33;;;;;;;9.30;2.70;;;;;;;17.58;65.87;102442.97;5049777;28;20041;-73
2022/06/12 07:08:58;;;;;;;10.50;3.05;;;;;;;17.71;66.70;102441.81;5049939;28;20147;-73
2022/06/12 07:11:25;;;;;;;14.07;3.10;;;;;;;17.75;64.00;102443.19;5048191;28;20041;-73
2022/06/12 07:13:51;;;;;;;12.15;2.65;;;;;;;17.78;63.75;102438.38;5049662;28;20108;-73
2022/06/12 07:16:17;;;;;;;9.80;2.67;;;;;;;17.72;63.60;102443.47;5049383;28;20496;-73
2022/06/12 07:18:43;;;;;;;11.13;2.75;;;;;;;17.83;65.94;102446.00;5052836;28;20033;-74
2022/06/12 07:21:08;;;;;;;10.75;2.80;;;;;;;18.00;63.53;102446.25;5051570;28;20166;-74
2022/06/12 07:23:34;;;;;;;13.27;2.90;;;;;;;18.14;63.61;102437.69;5053070;28;20132;-74
2022/06/12 07:26:04;;;;;;;8.90;2.28;;;;;;;18.46;63.12;102442.56;5052918;28;20408;-73
2022/06/12 07:28:32;;;;;;;10.77;2.50;;;;;;;18.79;62.33;102440.19;5053121;28;20036;-73
2022/06/12 07:30:57;;;;;;;10.73;2.63;;;;;;;18.90;58.49;102436.47;5053364;28;20244;-73
2022/06/12 07:33:23;;;;;;;13.48;2.78;;;;;;;18.96;59.26;102440.34;5052938;28;20032;-73
2022/06/12 07:35:49;;;;;;;9.77;2.60;;;;;;;18.94;58.80;102439.69;5052804;28;20410;-74
2022/06/12 07:38:18;;;;;;;10.55;2.78;;;;;;;18.81;58.49;102443.59;5052919;28;20044;-74
2022/06/12 07:40:48;;;;;;;10.75;2.50;;;;;;;18.78;59.08;102440.34;5052615;28;20029;-75
2022/06/12 07:43:14;;;;;;;7.85;2.20;;;;;;;18.74;59.14;102438.97;5052525;28;20037;-74
2022/06/12 07:45:42;;;;;;;10.68;2.67;;;;;;;18.84;59.06;102437.06;5052737;28;20180;-74
2022/06/12 07:48:08;;;;;;;12.68;2.50;;;;;;;18.94;58.66;102442.38;5052815;28;20140;-74
2022/06/12 07:50:37;;;;;;;10.88;2.78;;;;;;;18.94;58.33;102437.81;5052717;28;20193;-74
2022/06/12 07:53:03;;;;;;;15.38;3.80;;;;;;;18.91;59.34;102440.81;5050788;28;20025;-74
2022/06/12 07:55:28;;;;;;;12.10;2.47;;;;;;;18.83;58.83;102452.34;5052921;28;20039;-74
2022/06/12 07:57:54;;;;;;;9.73;2.65;;;;;;;18.78;57.12;102453.81;5052402;28;20047;-74
2022/06/12 08:00:19;;;;;;;8.13;3.08;;;;;;;18.74;58.37;102455.16;5052507;28;20025;-74
2022/06/12 08:02:46;;;;;;;9.70;2.50;;;;;;;18.90;60.77;102457.16;5051298;28;20326;-74
2022/06/12 08:05:14;;;;;;;12.90;2.70;;;;;;;19.12;60.04;102459.41;5052620;28;20461;-74
2022/06/12 08:07:39;;;;;;;10.70;2.58;;;;;;;19.33;57.60;102453.66;5052139;28;20057;-74
2022/06/12 08:10:06;;;;;;;11.88;2.63;;;;;;;19.36;57.87;102447.94;5052166;28;20463;-74
2022/06/12 08:12:33;;;;;;;11.88;3.13;;;;;;;19.27;57.92;102446.19;5050787;28;20043;-74
2022/06/12 08:14:59;;;;;;;11.50;2.38;;;;;;;19.12;56.81;102445.91;5050954;28;20078;-74
2022/06/12 08:17:25;;;;;;;12.65;2.97;;;;;;;18.94;57.76;102448.59;5052470;28;20087;-74
2022/06/12 08:22:34;;;;;;;11.90;3.10;;;;;;;19.28;58.79;102452.44;5052455;28;20067;-74
2022/06/12 08:25:01;;;;;;;10.00;2.90;;;;;;;19.51;56.89;102453.59;5052097;28;20025;-74
2022/06/12 08:27:26;;;;;;;14.27;2.60;;;;;;;19.73;56.17;102459.44;5052476;28;20116;-74
2022/06/12 08:29:52;;;;;;;15.00;3.10;;;;;;;19.60;55.60;102457.19;5051138;28;20064;-74
2022/06/12 08:32:21;;;;;;;10.43;2.50;;;;;;;19.88;55.05;102449.78;5052126;28;20484;-74
2022/06/12 08:34:52;;;;;;;11.82;2.88;;;;;;;20.29;53.43;102453.63;5052011;28;20064;-74
2022/06/12 08:37:31;;;;;;;12.80;2.90;;;;;;;20.70;53.08;102451.06;5050659;28;20357;-74
2022/06/12 08:39:57;;;;;;;13.23;2.83;;;;;;;20.92;51.74;102450.38;5051856;28;20027;-72
2022/06/12 08:42:30;;;;;;;9.35;2.65;;;;;;;21.42;51.16;102453.06;5052065;28;20113;-72
2022/06/12 08:45:11;;;;;;;9.07;2.38;;;;;;;21.98;48.88;102448.50;5051620;28;20043;-72
2022/06/12 08:47:51;;;;;;;7.57;2.53;;;;;;;22.54;46.10;102440.28;5052132;28;20037;-72
2022/06/12 08:50:24;;;;;;;8.73;2.25;;;;;;;22.62;44.71;102433.94;5051524;28;20438;-73
2022/06/12 08:52:59;;;;;;;9.80;2.50;;;;;;;22.33;45.62;102443.63;5051588;28;20033;-72
2022/06/12 08:55:47;;;;;;;9.13;2.67;;;;;;;22.60;45.66;102435.16;5031644;28;20163;-72
2022/06/12 08:58:43;;;;;;;9.88;2.65;;;;;;;22.80;45.35;102435.53;5030322;28;20151;-73
2022/06/12 09:01:09;;;;;;;13.70;3.15;;;;;;;23.64;42.74;102438.13;5031993;28;20029;-72
2022/06/12 09:03:38;;;;;;;18.38;2.88;;;;;;;24.42;41.06;102433.06;5031354;28;20037;-72
2022/06/12 09:06:14;;;;;;;15.23;3.17;;;;;;;25.07;40.61;102443.09;5031549;28;20026;-72
2022/06/12 09:08:46;;;;;;;9.00;3.08;;;;;;;25.65;38.78;102430.09;5031361;28;20041;-72
2022/06/12 09:11:20;;;;;;;10.43;2.90;;;;;;;26.00;37.93;102431.97;5030943;28;20077;-73
2022/06/12 09:13:45;;;;;;;14.35;3.05;;;;;;;26.19;37.62;102433.09;5031628;28;20112;-73
2022/06/12 09:16:27;;;;;;;10.30;2.80;;;;;;;26.55;36.64;102434.63;5031339;28;20064;-72
2022/06/12 09:19:20;;;;;;;11.68;2.97;;;;;;;26.70;35.11;102434.47;5031563;28;20037;-72
2022/06/12 09:22:09;;;;;;;7.43;2.70;;;;;;;26.86;33.83;102434.06;5030404;28;20113;-73
2022/06/12 09:24:38;;;;;;;12.63;2.70;;;;;;;26.92;35.72;102435.94;5030844;28;20044;-73
2022/06/12 09:27:22;;;;;;;10.73;2.78;;;;;;;26.81;35.39;102438.47;5031015;28;20033;-73
2022/06/12 09:29:56;;;;;;;14.02;3.03;;;;;;;27.02;35.20;102434.69;5030780;28;20041;-73
2022/06/12 09:32:33;;;;;;;11.10;2.83;;;;;;;27.26;32.56;102435.94;5029658;28;20131;-73
2022/06/12 09:35:10;;;;;;;9.98;2.45;;;;;;;27.19;34.01;102438.66;5031038;28;20112;-73
2022/06/12 09:38:21;;;;;;;12.57;2.92;;;;;;;27.64;32.97;102435.22;5030270;28;20033;-73
2022/06/12 09:41:21;;;;;;;12.35;2.60;;;;;;;26.68;35.52;102436.56;5030609;28;20029;-72
2022/06/12 09:43:46;;;;;;;11.63;2.85;;;;;;;26.59;35.61;102438.63;5030577;28;20112;-72
2022/06/12 09:46:21;;;;;;;8.63;2.85;;;;;;;27.00;32.84;102442.25;5030528;28;20450;-72
2022/06/12 09:49:23;;;;;;;8.13;2.50;;;;;;;26.86;32.94;102430.50;5030632;28;20041;-72
2022/06/12 09:52:07;;;;;;;7.95;2.20;;;;;;;27.22;33.54;102435.50;5029729;28;20049;-74
2022/06/12 09:54:53;;;;;;;8.77;2.55;;;;;;;27.01;34.59;102438.47;5043956;28;20061;-74
2022/06/12 09:57:43;;;;;;;9.02;2.63;;;;;;;27.08;31.52;102440.16;5050595;28;20025;-72
2022/06/12 10:00:26;;;;;;;8.63;2.67;;;;;;;26.70;32.49;102439.94;5050137;28;20060;-72
2022/06/12 10:02:54;;;;;;;8.13;2.28;;;;;;;26.56;33.19;102431.69;5050302;28;20441;-73
2022/06/12 10:05:28;;;;;;;10.27;2.85;;;;;;;26.56;33.43;102439.06;5050116;28;20072;-72
2022/06/12 10:08:00;;;;;;;16.73;3.30;;;;;;;27.02;31.93;102442.88;5050395;28;20484;-72
2022/06/12 10:10:44;;;;;;;10.60;2.40;;;;;;;27.23;30.44;102450.00;5049979;28;20031;-72
2022/06/12 10:13:16;;;;;;;9.95;2.33;;;;;;;27.57;31.54;102448.06;5050143;28;20029;-73
2022/06/12 10:15:50;;;;;;;10.10;2.40;;;;;;;27.99;31.12;102439.56;5050310;28;20021;-72
2022/06/12 10:18:32;;;;;;;8.77;2.80;;;;;;;27.84;29.05;102445.25;5048826;28;20140;-72
2022/06/12 10:21:06;;;;;;;9.80;2.83;;;;;;;27.68;30.97;102444.69;5049925;28;20037;-73
2022/06/12 10:23:32;;;;;;;8.13;2.80;;;;;;;27.35;30.93;102450.22;5049948;28;20037;-72
2022/06/12 10:26:00;;;;;;;8.40;2.70;;;;;;;27.59;31.08;102449.53;5050021;28;20033;-72
2022/06/12 10:28:26;;;;;;;9.80;2.65;;;;;;;27.26;30.32;102452.31;5050101;28;20116;-72
2022/06/12 10:31:00;;;;;;;7.72;2.45;;;;;;;26.89;31.13;102446.47;5049988;28;20064;-74
2022/06/12 10:33:32;;;;;;;8.90;2.40;;;;;;;26.50;31.57;102448.03;5049599;28;20039;-73
2022/06/12 10:36:05;;;;;;;8.10;2.22;;;;;;;26.76;30.65;102446.44;5050195;28;20033;-72
2022/06/12 10:38:34;;;;;;;5.63;2.13;;;;;;;26.86;32.17;102447.72;5050007;28;20368;-73
2022/06/12 10:41:03;;;;;;;7.20;2.33;;;;;;;26.86;32.73;102455.06;5049805;28;20067;-73
2022/06/12 10:43:36;;;;;;;8.20;2.58;;;;;;;26.29;32.07;102449.03;5048618;28;20043;-71
2022/06/12 10:46:12;;;;;;;8.23;2.50;;;;;;;26.46;33.16;102446.78;5049916;28;20029;-73
2022/06/12 10:48:37;;;;;;;11.15;2.80;;;;;;;27.10;32.10;102442.66;5049927;28;20113;-72
2022/06/12 10:51:30;;;;;;;8.43;2.90;;;;;;;27.54;32.20;102437.56;5049797;28;20135;-72
2022/06/12 10:54:01;;;;;;;7.32;2.28;;;;;;;26.32;32.10;102445.91;5053651;28;20053;-74
2022/06/12 10:56:42;;;;;;;8.98;2.58;;;;;;;25.65;34.94;102454.63;5053700;28;20101;-73
2022/06/12 10:59:37;;;;;;;12.15;2.75;;;;;;;26.31;33.46;102441.50;5053587;28;20044;-74
2022/06/12 11:02:06;;;;;;;10.73;2.40;;;;;;;26.19;34.36;102439.38;5053401;28;20120;-74
2022/06/12 11:04:56;;;;;;;8.93;2.55;;;;;;;26.15;34.27;102437.25;5053342;28;20040;-74
2022/06/12 11:07:42;;;;;;;11.98;2.90;;;;;;;25.72;33.50;102440.19;5053516;28;20454;-74
2022/06/12 11:10:31;;;;;;;15.63;3.08;;;;;;;26.01;33.55;102439.94;5053621;28;20029;-73
2022/06/12 11:13:25;;;;;;;7.97;2.38;;;;;;;25.81;35.11;102437.09;5053406;28;20036;-74
2022/06/12 11:16:05;;;;;;;8.23;2.47;;;;;;;26.73;35.94;102434.88;5052105;28;20551;-74
2022/06/12 11:18:51;;;;;;;9.38;2.30;;;;;;;26.80;31.71;102434.03;5053331;28;20033;-74
2022/06/12 11:21:44;;;;;;;10.60;2.50;;;;;;;26.77;31.68;102429.00;5053425;28;20037;-74
2022/06/12 11:24:31;;;;;;;7.40;2.38;;;;;;;26.09;31.71;102441.63;5053024;28;20381;-76
2022/06/12 11:27:15;;;;;;;6.82;2.70;;;;;;;25.41;33.40;102433.28;5053222;28;20028;-74
2022/06/12 11:29:59;;;;;;;9.68;2.53;;;;;;;25.78;35.26;102433.94;5053371;28;20028;-72
2022/06/12 11:32:48;;;;;;;7.30;2.42;;;;;;;25.88;33.73;102428.94;5052867;28;20100;-72
2022/06/12 11:35:21;;;;;;;9.80;2.20;;;;;;;26.11;33.90;102434.09;5052944;28;20028;-72
2022/06/12 11:37:54;;;;;;;9.75;2.58;;;;;;;26.03;34.24;102434.28;5053085;28;20340;-71
2022/06/12 11:40:47;;;;;;;8.07;2.72;;;;;;;25.65;35.02;102427.38;5053087;28;20429;-71
2022/06/12 11:43:34;;;;;;;9.80;2.53;;;;;;;26.20;35.32;102432.88;5052667;28;20033;-72
2022/06/12 11:46:05;;;;;;;10.65;3.15;;;;;;;26.56;34.08;102426.22;5053065;28;20106;-71
2022/06/12 11:48:49;;;;;;;10.50;3.00;;;;;;;26.52;33.32;102429.59;5052846;28;20029;-71
2022/06/12 11:51:36;;;;;;;6.22;2.40;;;;;;;25.63;33.32;102425.88;5052587;28;20039;-72
2022/06/12 11:54:25;;;;;;;11.75;3.00;;;;;;;25.74;35.38;102428.03;5052165;28;20347;-71
2022/06/12 11:57:18;;;;;;;11.15;3.15;;;;;;;25.83;34.56;102426.81;5052494;28;20228;-71